sensor_id;sensor_type;location;lat;lon;timestamp;pressure;altitude;pressure_sealevel;temperature;humidity
58955;BME280;45815;52.334;5.024;2023-06-22T00:00:43;101989.72;;;20.54;100.00
58955;BME280;45815;52.334;5.024;2023-06-22T00:03:10;101986.19;;;20.52;100.00
58955;BME280;45815;52.334;5.024;2023-06-22T00:05:35;101981.75;;;20.48;100.00
58955;BME280;45815;52.334;5.024;2023-06-22T00:08:03;101991.53;;;20.45;100.00
58955;BME280;45815;52.334;5.024;2023-06-22T00:10:29;101991.53;;;20.42;100.00
58955;BME280;45815;52.334;5.024;2023-06-22T00:12:55;101993.34;;;20.37;100.00
58955;BME280;45815;52.334;5.024;2023-06-22T00:15:20;101996.88;;;20.36;100.00
58955;BME280;45815;52.334;5.024;2023-06-22T00:17:46;101994.22;;;20.36;100.00
58955;BME280;45815;52.334;5.024;2023-06-22T00:20:11;101988.03;;;20.31;100.00
58955;BME280;45815;52.334;5.024;2023-06-22T00:22:37;101995.13;;;20.29;100.00
58955;BME280;45815;52.334;5.024;2023-06-22T00:25:06;101987.16;;;20.28;100.00
58955;BME280;45815;52.334;5.024;2023-06-22T00:27:32;101984.50;;;20.23;100.00
58955;BME280;45815;52.334;5.024;2023-06-22T00:29:57;101986.28;;;20.18;100.00
58955;BME280;45815;52.334;5.024;2023-06-22T00:32:23;101991.59;;;20.18;100.00
58955;BME280;45815;52.334;5.024;2023-06-22T00:34:48;101994.28;;;20.15;100.00
58955;BME280;45815;52.334;5.024;2023-06-22T00:37:15;101996.97;;;20.12;100.00
58955;BME280;45815;52.334;5.024;2023-06-22T00:39:41;101972.13;;;20.02;100.00
58955;BME280;45815;52.334;5.024;2023-06-22T00:42:06;101989.84;;;20.08;100.00
58955;BME280;45815;52.334;5.024;2023-06-22T00:44:32;101997.84;;;20.06;100.00
58955;BME280;45815;52.334;5.024;2023-06-22T00:46:57;102002.28;;;20.06;100.00
58955;BME280;45815;52.334;5.024;2023-06-22T00:49:25;101997.88;;;20.05;100.00
58955;BME280;45815;52.334;5.024;2023-06-22T00:51:52;101998.75;;;20.03;100.00
58955;BME280;45815;52.334;5.024;2023-06-22T00:54:17;101986.34;;;19.99;100.00
58955;BME280;45815;52.334;5.024;2023-06-22T00:56:52;101989.88;;;20.00;100.00
58955;BME280;45815;52.334;5.024;2023-06-22T00:59:20;101986.31;;;19.96;100.00
58955;BME280;45815;52.334;5.024;2023-06-22T01:01:46;101985.44;;;19.96;100.00
58955;BME280;45815;52.334;5.024;2023-06-22T01:04:12;101981.88;;;19.94;100.00
58955;BME280;45815;52.334;5.024;2023-06-22T01:07:27;101976.56;;;19.80;100.00
58955;BME280;45815;52.334;5.024;2023-06-22T01:10:25;101980.13;;;19.79;100.00
58955;BME280;45815;52.334;5.024;2023-06-22T01:12:55;101977.44;;;19.87;100.00
58955;BME280;45815;52.334;5.024;2023-06-22T01:15:33;101974.81;;;19.84;100.00
58955;BME280;45815;52.334;5.024;2023-06-22T01:18:03;101979.25;;;19.83;100.00
58955;BME280;45815;52.334;5.024;2023-06-22T01:20:30;101976.56;;;19.85;100.00
58955;BME280;45815;52.334;5.024;2023-06-22T01:23:05;101975.69;;;19.82;100.00
58955;BME280;45815;52.334;5.024;2023-06-22T01:25:47;101974.81;;;19.74;100.00
58955;BME280;45815;52.334;5.024;2023-06-22T01:30:42;101981.03;;;19.75;100.00
58955;BME280;45815;52.334;5.024;2023-06-22T01:33:11;101973.94;;;19.74;100.00
58955;BME280;45815;52.334;5.024;2023-06-22T01:35:39;101973.94;;;19.69;100.00
58955;BME280;45815;52.334;5.024;2023-06-22T01:38:05;101978.34;;;19.73;100.00
58955;BME280;45815;52.334;5.024;2023-06-22T01:40:32;101976.59;;;19.74;100.00
58955;BME280;45815;52.334;5.024;2023-06-22T01:43:00;101964.13;;;19.67;100.00
58955;BME280;45815;52.334;5.024;2023-06-22T01:45:27;101970.38;;;19.70;100.00
58955;BME280;45815;52.334;5.024;2023-06-22T01:47:53;101979.25;;;19.69;100.00
58955;BME280;45815;52.334;5.024;2023-06-22T01:50:20;101979.22;;;19.68;100.00
58955;BME280;45815;52.334;5.024;2023-06-22T01:52:46;101986.34;;;19.69;100.00
58955;BME280;45815;52.334;5.024;2023-06-22T01:55:11;101988.13;;;19.67;100.00
58955;BME280;45815;52.334;5.024;2023-06-22T01:57:37;101976.56;;;19.65;100.00
58955;BME280;45815;52.334;5.024;2023-06-22T02:00:13;101988.09;;;19.60;100.00
58955;BME280;45815;52.334;5.024;2023-06-22T02:02:57;101984.53;;;19.61;100.00
58955;BME280;45815;52.334;5.024;2023-06-22T02:05:26;101984.53;;;19.61;100.00
58955;BME280;45815;52.334;5.024;2023-06-22T02:08:17;101973.91;;;19.51;100.00
58955;BME280;45815;52.334;5.024;2023-06-22T02:10:46;101972.97;;;19.59;100.00
58955;BME280;45815;52.334;5.024;2023-06-22T02:13:14;101959.72;;;19.50;100.00
58955;BME280;45815;52.334;5.024;2023-06-22T02:15:41;101976.56;;;19.58;100.00
58955;BME280;45815;52.334;5.024;2023-06-22T02:18:07;101972.13;;;19.57;100.00
58955;BME280;45815;52.334;5.024;2023-06-22T02:20:36;101957.91;;;19.51;100.00
58955;BME280;45815;52.334;5.024;2023-06-22T02:23:02;101962.34;;;19.53;100.00
58955;BME280;45815;52.334;5.024;2023-06-22T02:25:27;101965.03;;;19.53;100.00
58955;BME280;45815;52.334;5.024;2023-06-22T02:27:53;101959.72;;;19.50;100.00
58955;BME280;45815;52.334;5.024;2023-06-22T02:30:18;101966.78;;;19.50;100.00
58955;BME280;45815;52.334;5.024;2023-06-22T02:32:43;101963.25;;;19.49;100.00
58955;BME280;45815;52.334;5.024;2023-06-22T02:35:09;101958.81;;;19.48;100.00
58955;BME280;45815;52.334;5.024;2023-06-22T02:37:36;101955.22;;;19.48;100.00
58955;BME280;45815;52.334;5.024;2023-06-22T02:40:05;101961.47;;;19.48;100.00
58955;BME280;45815;52.334;5.024;2023-06-22T02:42:34;101961.44;;;19.45;100.00
58955;BME280;45815;52.334;5.024;2023-06-22T02:44:59;101965.00;;;19.44;100.00
58955;BME280;45815;52.334;5.024;2023-06-22T02:47:25;101968.53;;;19.43;100.00
58955;BME280;45815;52.334;5.024;2023-06-22T02:49:50;101961.47;;;19.42;100.00
58955;BME280;45815;52.334;5.024;2023-06-22T02:52:16;101961.44;;;19.40;100.00
58955;BME280;45815;52.334;5.024;2023-06-22T02:54:41;101959.69;;;19.41;100.00
58955;BME280;45815;52.334;5.024;2023-06-22T02:57:07;101957.03;;;19.39;100.00
58955;BME280;45815;52.334;5.024;2023-06-22T02:59:40;101957.91;;;19.40;100.00
58955;BME280;45815;52.334;5.024;2023-06-22T03:02:10;101957.91;;;19.38;100.00
58955;BME280;45815;52.334;5.024;2023-06-22T03:04:37;101960.56;;;19.37;100.00
58955;BME280;45815;52.334;5.024;2023-06-22T03:07:02;101954.34;;;19.35;100.00
58955;BME280;45815;52.334;5.024;2023-06-22T03:09:29;101959.69;;;19.35;100.00
58955;BME280;45815;52.334;5.024;2023-06-22T03:11:56;101952.59;;;19.34;100.00
58955;BME280;45815;52.334;5.024;2023-06-22T03:14:25;101941.94;;;19.31;100.00
58955;BME280;45815;52.334;5.024;2023-06-22T03:16:51;101958.81;;;19.30;100.00
58955;BME280;45815;52.334;5.024;2023-06-22T03:19:18;101957.91;;;19.28;100.00
58955;BME280;45815;52.334;5.024;2023-06-22T03:21:44;101954.34;;;19.24;100.00
58955;BME280;45815;52.334;5.024;2023-06-22T03:24:10;101949.00;;;19.19;100.00
58955;BME280;45815;52.334;5.024;2023-06-22T03:26:37;101948.13;;;19.19;100.00
58955;BME280;45815;52.334;5.024;2023-06-22T03:29:02;101938.38;;;19.12;100.00
58955;BME280;45815;52.334;5.024;2023-06-22T03:31:29;101951.66;;;19.12;100.00
58955;BME280;45815;52.334;5.024;2023-06-22T03:33:55;101966.78;;;19.17;100.00
58955;BME280;45815;52.334;5.024;2023-06-22T03:36:22;101964.09;;;19.16;100.00
58955;BME280;45815;52.334;5.024;2023-06-22T03:38:48;101952.56;;;19.15;100.00
58955;BME280;45815;52.334;5.024;2023-06-22T03:41:15;101947.25;;;19.15;100.00
58955;BME280;45815;52.334;5.024;2023-06-22T03:43:41;101944.56;;;19.14;100.00
58955;BME280;45815;52.334;5.024;2023-06-22T03:46:07;101949.91;;;19.14;100.00
58955;BME280;45815;52.334;5.024;2023-06-22T03:48:32;101948.16;;;19.13;100.00
58955;BME280;45815;52.334;5.024;2023-06-22T03:51:02;101942.81;;;19.11;100.00
58955;BME280;45815;52.334;5.024;2023-06-22T03:53:28;101936.59;;;19.11;100.00
58955;BME280;45815;52.334;5.024;2023-06-22T03:55:54;101945.47;;;19.11;100.00
58955;BME280;45815;52.334;5.024;2023-06-22T03:58:20;101945.47;;;19.07;100.00
58955;BME280;45815;52.334;5.024;2023-06-22T04:00:46;101951.66;;;19.10;100.00
58955;BME280;45815;52.334;5.024;2023-06-22T04:03:13;101955.22;;;19.11;100.00
58955;BME280;45815;52.334;5.024;2023-06-22T04:05:39;101953.47;;;19.13;100.00
58955;BME280;45815;52.334;5.024;2023-06-22T04:08:05;101957.00;;;19.13;100.00
58955;BME280;45815;52.334;5.024;2023-06-22T04:10:30;101956.09;;;19.14;100.00
58955;BME280;45815;52.334;5.024;2023-06-22T04:12:56;101950.78;;;19.14;100.00
58955;BME280;45815;52.334;5.024;2023-06-22T04:15:21;101953.47;;;19.16;100.00
58955;BME280;45815;52.334;5.024;2023-06-22T04:17:47;101941.03;;;19.16;100.00
58955;BME280;45815;52.334;5.024;2023-06-22T04:20:12;101947.25;;;19.18;100.00
58955;BME280;45815;52.334;5.024;2023-06-22T04:22:38;101931.28;;;19.18;100.00
58955;BME280;45815;52.334;5.024;2023-06-22T04:25:04;101933.94;;;19.22;100.00
58955;BME280;45815;52.334;5.024;2023-06-22T04:27:30;101939.28;;;19.25;100.00
58955;BME280;45815;52.334;5.024;2023-06-22T04:29:56;101937.47;;;19.27;100.00
58955;BME280;45815;52.334;5.024;2023-06-22T04:32:21;101936.59;;;19.28;100.00
58955;BME280;45815;52.334;5.024;2023-06-22T04:34:47;101934.84;;;19.30;100.00
58955;BME280;45815;52.334;5.024;2023-06-22T04:37:12;101934.84;;;19.33;100.00
58955;BME280;45815;52.334;5.024;2023-06-22T04:39:42;101939.28;;;19.37;100.00
58955;BME280;45815;52.334;5.024;2023-06-22T04:42:07;101932.16;;;19.40;100.00
58955;BME280;45815;52.334;5.024;2023-06-22T04:44:33;101942.84;;;19.44;100.00
58955;BME280;45815;52.334;5.024;2023-06-22T04:47:00;101938.38;;;19.47;100.00
58955;BME280;45815;52.334;5.024;2023-06-22T04:49:30;101931.28;;;19.52;100.00
58955;BME280;45815;52.334;5.024;2023-06-22T04:52:00;101940.16;;;19.57;100.00
58955;BME280;45815;52.334;5.024;2023-06-22T04:54:26;101933.94;;;19.66;100.00
58955;BME280;45815;52.334;5.024;2023-06-22T04:56:51;101941.97;;;19.72;100.00
58955;BME280;45815;52.334;5.024;2023-06-22T04:59:27;101927.75;;;19.75;100.00
58955;BME280;45815;52.334;5.024;2023-06-22T05:02:00;101938.38;;;19.87;100.00
58955;BME280;45815;52.334;5.024;2023-06-22T05:04:27;101938.38;;;19.93;100.00
58955;BME280;45815;52.334;5.024;2023-06-22T05:07:01;101935.69;;;19.98;100.00
58955;BME280;45815;52.334;5.024;2023-06-22T05:09:27;101934.78;;;20.03;100.00
58955;BME280;45815;52.334;5.024;2023-06-22T05:11:52;101940.09;;;20.10;100.00
58955;BME280;45815;52.334;5.024;2023-06-22T05:14:18;101925.91;;;20.09;100.00
58955;BME280;45815;52.334;5.024;2023-06-22T05:16:45;101939.19;;;20.23;100.00
58955;BME280;45815;52.334;5.024;2023-06-22T05:19:11;101932.94;;;20.18;100.00
58955;BME280;45815;52.334;5.024;2023-06-22T05:21:37;101934.69;;;20.25;100.00
58955;BME280;45815;52.334;5.024;2023-06-22T05:24:02;101931.13;;;20.29;100.00
58955;BME280;45815;52.334;5.024;2023-06-22T05:26:29;101936.47;;;20.34;100.00
58955;BME280;45815;52.334;5.024;2023-06-22T05:28:55;101932.00;;;20.36;100.00
58955;BME280;45815;52.334;5.024;2023-06-22T05:31:20;101926.69;;;20.37;100.00
58955;BME280;45815;52.334;5.024;2023-06-22T05:33:46;101928.41;;;20.41;100.00
58955;BME280;45815;52.334;5.024;2023-06-22T05:36:13;101921.28;;;20.48;100.00
58955;BME280;45815;52.334;5.024;2023-06-22T05:38:39;101923.91;;;20.53;100.00
58955;BME280;45815;52.334;5.024;2023-06-22T05:41:05;101931.94;;;20.57;100.00
58955;BME280;45815;52.334;5.024;2023-06-22T05:43:30;101931.91;;;20.63;100.00
58955;BME280;45815;52.334;5.024;2023-06-22T05:45:56;101929.19;;;20.71;100.00
58955;BME280;45815;52.334;5.024;2023-06-22T05:48:22;101924.78;;;20.70;100.00
58955;BME280;45815;52.334;5.024;2023-06-22T05:50:48;101930.91;;;20.83;100.00
58955;BME280;45815;52.334;5.024;2023-06-22T05:53:13;101935.31;;;20.93;100.00
58955;BME280;45815;52.334;5.024;2023-06-22T05:55:39;101936.13;;;21.00;100.00
58955;BME280;45815;52.334;5.024;2023-06-22T05:58:04;101937.00;;;21.05;100.00
58955;BME280;45815;52.334;5.024;2023-06-22T06:00:30;101941.41;;;21.09;100.00
58955;BME280;45815;52.334;5.024;2023-06-22T06:02:55;101952.06;;;21.15;100.00
58955;BME280;45815;52.334;5.024;2023-06-22T06:05:21;101943.16;;;21.12;100.00
58955;BME280;45815;52.334;5.024;2023-06-22T06:07:47;101952.91;;;21.22;100.00
58955;BME280;45815;52.334;5.024;2023-06-22T06:10:13;101943.97;;;21.24;100.00
58955;BME280;45815;52.334;5.024;2023-06-22T06:12:38;101937.72;;;21.27;100.00
58955;BME280;45815;52.334;5.024;2023-06-22T06:15:04;101940.41;;;21.25;100.00
58955;BME280;45815;52.334;5.024;2023-06-22T06:17:30;101935.97;;;21.24;100.00
58955;BME280;45815;52.334;5.024;2023-06-22T06:19:55;101936.84;;;21.26;100.00
58955;BME280;45815;52.334;5.024;2023-06-22T06:22:21;101930.59;;;21.27;100.00
58955;BME280;45815;52.334;5.024;2023-06-22T06:24:48;101916.41;;;21.22;100.00
58955;BME280;45815;52.334;5.024;2023-06-22T06:27:14;101930.56;;;21.34;100.00
58955;BME280;45815;52.334;5.024;2023-06-22T06:29:39;101924.34;;;21.33;100.00
58955;BME280;45815;52.334;5.024;2023-06-22T06:32:05;101918.97;;;21.38;100.00
58955;BME280;45815;52.334;5.024;2023-06-22T06:34:31;101915.41;;;21.40;100.00
58955;BME280;45815;52.334;5.024;2023-06-22T06:36:56;101919.78;;;21.44;100.00
58955;BME280;45815;52.334;5.024;2023-06-22T06:39:21;101919.72;;;21.54;100.00
58955;BME280;45815;52.334;5.024;2023-06-22T06:41:47;101916.97;;;21.63;100.00
58955;BME280;45815;52.334;5.024;2023-06-22T06:44:14;101914.22;;;21.70;100.00
58955;BME280;45815;52.334;5.024;2023-06-22T06:46:40;101914.19;;;21.74;100.00
58955;BME280;45815;52.334;5.024;2023-06-22T06:49:07;101908.78;;;21.80;100.00
58955;BME280;45815;52.334;5.024;2023-06-22T06:51:32;101914.00;;;21.89;100.00
58955;BME280;45815;52.334;5.024;2023-06-22T06:53:58;101911.28;;;21.95;100.00
58955;BME280;45815;52.334;5.024;2023-06-22T06:56:23;101913.91;;;22.01;100.00
58955;BME280;45815;52.334;5.024;2023-06-22T06:58:50;101909.38;;;22.06;100.00
58955;BME280;45815;52.334;5.024;2023-06-22T07:01:16;101912.00;;;22.11;100.00
58955;BME280;45815;52.334;5.024;2023-06-22T07:03:41;101908.41;;;22.13;100.00
58955;BME280;45815;52.334;5.024;2023-06-22T07:06:08;101908.34;;;22.20;100.00
58955;BME280;45815;52.334;5.024;2023-06-22T07:08:33;101903.84;;;22.25;100.00
58955;BME280;45815;52.334;5.024;2023-06-22T07:11:00;101897.53;;;22.30;100.00
58955;BME280;45815;52.334;5.024;2023-06-22T07:13:26;101894.78;;;22.33;100.00
58955;BME280;45815;52.334;5.024;2023-06-22T07:15:51;101898.38;;;22.34;100.00
58955;BME280;45815;52.334;5.024;2023-06-22T07:18:16;101900.13;;;22.35;100.00
58955;BME280;45815;52.334;5.024;2023-06-22T07:20:42;101895.66;;;22.37;100.00
58955;BME280;45815;52.334;5.024;2023-06-22T07:23:07;101890.25;;;22.40;100.00
58955;BME280;45815;52.334;5.024;2023-06-22T07:25:33;101900.94;;;22.43;100.00
58955;BME280;45815;52.334;5.024;2023-06-22T07:28:03;101873.38;;;22.37;100.00
58955;BME280;45815;52.334;5.024;2023-06-22T07:30:30;101887.50;;;22.48;100.00
58955;BME280;45815;52.334;5.024;2023-06-22T07:32:56;101889.19;;;22.53;100.00
58955;BME280;45815;52.334;5.024;2023-06-22T07:35:22;101885.56;;;22.58;100.00
58955;BME280;45815;52.334;5.024;2023-06-22T07:37:47;101882.84;;;22.59;100.00
58955;BME280;45815;52.334;5.024;2023-06-22T07:40:13;101885.44;;;22.67;100.00
58955;BME280;45815;52.334;5.024;2023-06-22T07:42:38;101880.84;;;22.75;100.00
58955;BME280;45815;52.334;5.024;2023-06-22T07:45:04;101880.72;;;22.84;100.00
58955;BME280;45815;52.334;5.024;2023-06-22T07:47:31;101870.78;;;22.91;100.00
58955;BME280;45815;52.334;5.024;2023-06-22T07:50:01;101871.59;;;22.96;100.00
58955;BME280;45815;52.334;5.024;2023-06-22T07:52:30;101866.19;;;23.01;100.00
58955;BME280;45815;52.334;5.024;2023-06-22T07:54:56;101864.25;;;23.12;100.00
58955;BME280;45815;52.334;5.024;2023-06-22T07:57:21;101868.41;;;23.28;100.00
58955;BME280;45815;52.334;5.024;2023-06-22T07:59:47;101857.53;;;23.37;100.00
58955;BME280;45815;52.334;5.024;2023-06-22T08:02:12;101858.09;;;23.55;100.00
58955;BME280;45815;52.334;5.024;2023-06-22T08:04:38;101855.16;;;23.69;100.00
58955;BME280;45815;52.334;5.024;2023-06-22T08:07:05;101853.97;;;23.87;100.00
58955;BME280;45815;52.334;5.024;2023-06-22T08:09:31;101864.31;;;24.05;100.00
58955;BME280;45815;52.334;5.024;2023-06-22T08:11:58;101847.03;;;24.18;100.00
58955;BME280;45815;52.334;5.024;2023-06-22T08:14:27;101858.97;;;24.46;100.00
58955;BME280;45815;52.334;5.024;2023-06-22T08:16:53;101860.38;;;24.63;100.00
58955;BME280;45815;52.334;5.024;2023-06-22T08:19:18;101855.38;;;24.85;100.00
58955;BME280;45815;52.334;5.024;2023-06-22T08:21:44;101843.22;;;25.06;100.00
58955;BME280;45815;52.334;5.024;2023-06-22T08:24:09;101844.53;;;25.26;100.00
58955;BME280;45815;52.334;5.024;2023-06-22T08:26:34;101843.03;;;25.48;100.00
58955;BME280;45815;52.334;5.024;2023-06-22T08:29:05;101844.13;;;25.74;100.00
58955;BME280;45815;52.334;5.024;2023-06-22T08:31:31;101832.72;;;25.97;100.00
58955;BME280;45815;52.334;5.024;2023-06-22T08:33:59;101826.94;;;26.11;100.00
58955;BME280;45815;52.334;5.024;2023-06-22T08:36:25;101821.03;;;26.28;100.00
58955;BME280;45815;52.334;5.024;2023-06-22T08:38:54;101821.59;;;26.39;100.00
58955;BME280;45815;52.334;5.024;2023-06-22T08:41:25;101827.44;;;26.52;100.00
58955;BME280;45815;52.334;5.024;2023-06-22T08:43:50;101814.53;;;26.65;100.00
58955;BME280;45815;52.334;5.024;2023-06-22T08:46:16;101818.53;;;26.78;100.00
58955;BME280;45815;52.334;5.024;2023-06-22T08:48:45;101813.66;;;26.91;100.00
58955;BME280;45815;52.334;5.024;2023-06-22T08:51:10;101816.78;;;27.04;100.00
58955;BME280;45815;52.334;5.024;2023-06-22T08:53:35;101817.31;;;27.15;100.00
58955;BME280;45815;52.334;5.024;2023-06-22T08:56:01;101807.09;;;27.25;100.00
58955;BME280;45815;52.334;5.024;2023-06-22T08:58:27;101798.50;;;27.40;100.00
58955;BME280;45815;52.334;5.024;2023-06-22T09:00:52;101805.91;;;27.58;100.00
58955;BME280;45815;52.334;5.024;2023-06-22T09:03:18;101799.94;;;27.74;100.00
58955;BME280;45815;52.334;5.024;2023-06-22T09:05:45;101807.53;;;27.88;100.00
58955;BME280;45815;52.334;5.024;2023-06-22T09:08:11;101804.47;;;27.97;100.00
58955;BME280;45815;52.334;5.024;2023-06-22T09:10:37;101802.25;;;28.08;100.00
58955;BME280;45815;52.334;5.024;2023-06-22T09:13:02;101805.47;;;28.18;100.00
58955;BME280;45815;52.334;5.024;2023-06-22T09:15:27;101804.66;;;28.16;100.00
58955;BME280;45815;52.334;5.024;2023-06-22T09:17:53;101810.00;;;28.17;100.00
58955;BME280;45815;52.334;5.024;2023-06-22T09:20:19;101816.13;;;28.21;100.00
58955;BME280;45815;52.334;5.024;2023-06-22T09:22:45;101815.09;;;28.25;100.00
58955;BME280;45815;52.334;5.024;2023-06-22T09:25:10;101802.34;;;28.29;100.00
58955;BME280;45815;52.334;5.024;2023-06-22T09:27:36;101804.88;;;28.33;100.00
58955;BME280;45815;52.334;5.024;2023-06-22T09:30:01;101806.16;;;28.23;100.00
58955;BME280;45815;52.334;5.024;2023-06-22T09:32:28;101797.19;;;28.23;100.00
58955;BME280;45815;52.334;5.024;2023-06-22T09:34:54;101793.31;;;28.30;100.00
58955;BME280;45815;52.334;5.024;2023-06-22T09:37:19;101787.25;;;28.23;100.00
58955;BME280;45815;52.334;5.024;2023-06-22T09:39:45;101795.06;;;28.31;100.00
58955;BME280;45815;52.334;5.024;2023-06-22T09:42:10;101797.81;;;28.53;100.00
58955;BME280;45815;52.334;5.024;2023-06-22T09:44:36;101805.13;;;28.49;100.00
58955;BME280;45815;52.334;5.024;2023-06-22T09:47:02;101805.66;;;28.59;100.00
58955;BME280;45815;52.334;5.024;2023-06-22T09:49:27;101801.78;;;28.66;100.00
58955;BME280;45815;52.334;5.024;2023-06-22T09:51:53;101795.28;;;28.70;100.00
58955;BME280;45815;52.334;5.024;2023-06-22T09:54:18;101795.16;;;28.73;100.00
58955;BME280;45815;52.334;5.024;2023-06-22T09:56:44;101798.31;;;28.85;100.00
58955;BME280;45815;52.334;5.024;2023-06-22T09:59:09;101797.34;;;28.86;100.00
58955;BME280;45815;52.334;5.024;2023-06-22T10:01:35;101792.31;;;28.76;100.00
58955;BME280;45815;52.334;5.024;2023-06-22T10:04:02;101785.09;;;28.77;100.00
58955;BME280;45815;52.334;5.024;2023-06-22T10:06:27;101786.28;;;28.70;100.00
58955;BME280;45815;52.334;5.024;2023-06-22T10:08:53;101781.75;;;28.70;100.00
58955;BME280;45815;52.334;5.024;2023-06-22T10:11:18;101780.88;;;28.70;100.00
58955;BME280;45815;52.334;5.024;2023-06-22T10:13:44;101773.25;;;28.59;100.00
58955;BME280;45815;52.334;5.024;2023-06-22T10:16:09;101777.03;;;28.55;100.00
58955;BME280;45815;52.334;5.024;2023-06-22T10:18:34;101782.75;;;28.46;100.00
58955;BME280;45815;52.334;5.024;2023-06-22T10:21:00;101778.59;;;28.37;100.00
58955;BME280;45815;52.334;5.024;2023-06-22T10:23:25;101769.13;;;28.27;100.00
58955;BME280;45815;52.334;5.024;2023-06-22T10:25:51;101771.06;;;28.23;100.00
58955;BME280;45815;52.334;5.024;2023-06-22T10:28:16;101781.84;;;28.23;100.00
58955;BME280;45815;52.334;5.024;2023-06-22T10:30:42;101775.03;;;28.14;100.00
58955;BME280;45815;52.334;5.024;2023-06-22T10:33:08;101771.78;;;28.05;100.00
58955;BME280;45815;52.334;5.024;2023-06-22T10:35:34;101770.88;;;28.06;100.00
58955;BME280;45815;52.334;5.024;2023-06-22T10:38:00;101772.97;;;27.97;100.00
58955;BME280;45815;52.334;5.024;2023-06-22T10:40:25;101769.59;;;27.92;100.00
58955;BME280;45815;52.334;5.024;2023-06-22T10:42:51;101774.41;;;27.84;100.00
58955;BME280;45815;52.334;5.024;2023-06-22T10:45:16;101773.66;;;27.79;100.00
58955;BME280;45815;52.334;5.024;2023-06-22T10:47:42;101772.19;;;27.70;100.00
58955;BME280;45815;52.334;5.024;2023-06-22T10:50:07;101776.94;;;27.64;100.00
58955;BME280;45815;52.334;5.024;2023-06-22T10:52:33;101776.28;;;27.57;100.00
58955;BME280;45815;52.334;5.024;2023-06-22T10:54:59;101779.28;;;27.49;100.00
58955;BME280;45815;52.334;5.024;2023-06-22T10:57:24;101759.91;;;27.38;100.00
58955;BME280;45815;52.334;5.024;2023-06-22T10:59:49;101779.50;;;27.43;100.00
58955;BME280;45815;52.334;5.024;2023-06-22T11:02:15;101776.09;;;27.38;100.00
58955;BME280;45815;52.334;5.024;2023-06-22T11:04:40;101781.94;;;27.26;100.00
58955;BME280;45815;52.334;5.024;2023-06-22T11:07:06;101778.56;;;27.17;100.00
58955;BME280;45815;52.334;5.024;2023-06-22T11:09:31;101776.22;;;27.08;100.00
58955;BME280;45815;52.334;5.024;2023-06-22T11:11:57;101780.78;;;27.06;100.00
58955;BME280;45815;52.334;5.024;2023-06-22T11:14:24;101769.06;;;27.07;100.00
58955;BME280;45815;52.334;5.024;2023-06-22T11:16:50;101775.38;;;27.06;100.00
58955;BME280;45815;52.334;5.024;2023-06-22T11:19:15;101772.81;;;27.03;100.00
58955;BME280;45815;52.334;5.024;2023-06-22T11:21:41;101779.19;;;27.01;100.00
58955;BME280;45815;52.334;5.024;2023-06-22T11:24:07;101782.81;;;27.00;100.00
58955;BME280;45815;52.334;5.024;2023-06-22T11:26:33;101774.94;;;26.93;100.00
58955;BME280;45815;52.334;5.024;2023-06-22T11:28:59;101778.47;;;26.95;100.00
58955;BME280;45815;52.334;5.024;2023-06-22T11:31:24;101764.44;;;26.86;100.00
58955;BME280;45815;52.334;5.024;2023-06-22T11:33:50;101783.19;;;26.89;100.00
58955;BME280;45815;52.334;5.024;2023-06-22T11:36:16;101765.63;;;26.77;100.00
58955;BME280;45815;52.334;5.024;2023-06-22T11:38:42;101781.81;;;26.76;100.00
58955;BME280;45815;52.334;5.024;2023-06-22T11:41:08;101772.13;;;26.71;100.00
58955;BME280;45815;52.334;5.024;2023-06-22T11:43:34;101760.41;;;26.72;100.00
58955;BME280;45815;52.334;5.024;2023-06-22T11:46:02;101763.84;;;26.76;100.00
58955;BME280;45815;52.334;5.024;2023-06-22T11:48:27;101766.59;;;26.74;100.00
58955;BME280;45815;52.334;5.024;2023-06-22T11:50:53;101756.59;;;26.78;100.00
58955;BME280;45815;52.334;5.024;2023-06-22T11:53:21;101755.56;;;26.82;100.00
58955;BME280;45815;52.334;5.024;2023-06-22T11:55:47;101751.97;;;26.83;100.00
58955;BME280;45815;52.334;5.024;2023-06-22T11:58:13;101737.69;;;26.80;100.00
58955;BME280;45815;52.334;5.024;2023-06-22T12:00:38;101748.19;;;26.87;100.00
58955;BME280;45815;52.334;5.024;2023-06-22T12:03:04;101740.19;;;26.86;100.00
58955;BME280;45815;52.334;5.024;2023-06-22T12:05:29;101739.25;;;26.87;100.00
58955;BME280;45815;52.334;5.024;2023-06-22T12:07:55;101733.75;;;26.90;100.00
58955;BME280;45815;52.334;5.024;2023-06-22T12:10:22;101731.00;;;26.91;100.00
58955;BME280;45815;52.334;5.024;2023-06-22T12:12:47;101727.31;;;26.94;100.00
58955;BME280;45815;52.334;5.024;2023-06-22T12:15:13;101721.81;;;26.97;100.00
58955;BME280;45815;52.334;5.024;2023-06-22T12:17:38;101722.63;;;26.99;100.00
58955;BME280;45815;52.334;5.024;2023-06-22T12:20:05;101705.59;;;26.99;100.00
58955;BME280;45815;52.334;5.024;2023-06-22T12:22:32;101716.25;;;27.02;100.00
58955;BME280;45815;52.334;5.024;2023-06-22T12:24:57;101710.94;;;27.00;100.00
58955;BME280;45815;52.334;5.024;2023-06-22T12:27:23;101708.34;;;26.97;100.00
58955;BME280;45815;52.334;5.024;2023-06-22T12:29:48;101712.19;;;26.90;100.00
58955;BME280;45815;52.334;5.024;2023-06-22T12:32:14;101706.91;;;26.87;100.00
58955;BME280;45815;52.334;5.024;2023-06-22T12:34:42;101710.66;;;26.83;100.00
58955;BME280;45815;52.334;5.024;2023-06-22T12:37:07;101710.81;;;26.78;100.00
58955;BME280;45815;52.334;5.024;2023-06-22T12:39:33;101701.25;;;26.69;100.00